sensor_id;sensor_type;location;lat;lon;timestamp;P1;durP1;ratioP1;P2;durP2;ratioP2
22675;SDS011;12521;43.310;21.876;2023-04-01T00:04:18;29.0;;;21.0;;
22675;SDS011;12521;43.310;21.876;2023-04-01T00:08:54;29.0;;;21.0;;
22675;SDS011;12521;43.310;21.876;2023-04-01T00:13:32;30.0;;;22.0;;
22675;SDS011;12521;43.310;21.876;2023-04-01T00:18:10;30.0;;;22.0;;
22675;SDS011;12521;43.310;21.876;2023-04-01T00:22:49;31.0;;;23.0;;
22675;SDS011;12521;43.310;21.876;2023-04-01T00:27:26;31.0;;;23.0;;
22675;SDS011;12521;43.310;21.876;2023-04-01T00:32:03;19.0;;;14.0;;
22675;SDS011;12521;43.310;21.876;2023-04-01T00:36:41;19.0;;;14.0;;
22675;SDS011;12521;43.310;21.876;2023-04-01T00:41:19;7.0;;;6.0;;
22675;SDS011;12521;43.310;21.876;2023-04-01T00:45:57;7.0;;;6.0;;
22675;SDS011;12521;43.310;21.876;2023-04-01T00:50:36;9.0;;;6.0;;
22675;SDS011;12521;43.310;21.876;2023-04-01T00:55:35;9.0;;;6.0;;
22675;SDS011;12521;43.310;21.876;2023-04-01T01:00:36;11.0;;;7.0;;
22675;SDS011;12521;43.310;21.876;2023-04-01T01:05:16;11.0;;;7.0;;
22675;SDS011;12521;43.310;21.876;2023-04-01T01:10:49;11.0;;;8.0;;
22675;SDS011;12521;43.310;21.876;2023-04-01T01:15:32;11.0;;;8.0;;
22675;SDS011;12521;43.310;21.876;2023-04-01T01:20:53;11.0;;;8.0;;
22675;SDS011;12521;43.310;21.876;2023-04-01T01:26:22;11.0;;;8.0;;
22675;SDS011;12521;43.310;21.876;2023-04-01T01:31:34;13.0;;;10.0;;
22675;SDS011;12521;43.310;21.876;2023-04-01T01:36:33;13.0;;;10.0;;
22675;SDS011;12521;43.310;21.876;2023-04-01T01:41:13;15.0;;;11.0;;
22675;SDS011;12521;43.310;21.876;2023-04-01T01:46:03;15.0;;;11.0;;
22675;SDS011;12521;43.310;21.876;2023-04-01T01:50:52;14.0;;;11.0;;
22675;SDS011;12521;43.310;21.876;2023-04-01T01:55:33;14.0;;;11.0;;
22675;SDS011;12521;43.310;21.876;2023-04-01T02:00:17;14.0;;;11.0;;
22675;SDS011;12521;43.310;21.876;2023-04-01T02:04:58;13.0;;;11.0;;
22675;SDS011;12521;43.310;21.876;2023-04-01T02:09:37;13.0;;;11.0;;
22675;SDS011;12521;43.310;21.876;2023-04-01T02:14:18;14.0;;;12.0;;
22675;SDS011;12521;43.310;21.876;2023-04-01T02:19:06;14.0;;;12.0;;
22675;SDS011;12521;43.310;21.876;2023-04-01T02:23:47;15.0;;;14.0;;
22675;SDS011;12521;43.310;21.876;2023-04-01T02:28:26;15.0;;;14.0;;
22675;SDS011;12521;43.310;21.876;2023-04-01T02:33:06;17.0;;;14.0;;
22675;SDS011;12521;43.310;21.876;2023-04-01T02:37:46;17.0;;;14.0;;
22675;SDS011;12521;43.310;21.876;2023-04-01T02:42:25;19.0;;;15.0;;
22675;SDS011;12521;43.310;21.876;2023-04-01T02:47:02;19.0;;;15.0;;
22675;SDS011;12521;43.310;21.876;2023-04-01T02:51:39;22.0;;;16.0;;
22675;SDS011;12521;43.310;21.876;2023-04-01T02:56:15;22.0;;;16.0;;
22675;SDS011;12521;43.310;21.876;2023-04-01T03:00:52;24.0;;;18.0;;
22675;SDS011;12521;43.310;21.876;2023-04-01T03:05:29;24.0;;;18.0;;
22675;SDS011;12521;43.310;21.876;2023-04-01T03:10:07;24.0;;;18.0;;
22675;SDS011;12521;43.310;21.876;2023-04-01T03:14:46;22.0;;;17.0;;
22675;SDS011;12521;43.310;21.876;2023-04-01T03:19:22;22.0;;;17.0;;
22675;SDS011;12521;43.310;21.876;2023-04-01T03:23:59;19.0;;;16.0;;
22675;SDS011;12521;43.310;21.876;2023-04-01T03:28:36;19.0;;;16.0;;
22675;SDS011;12521;43.310;21.876;2023-04-01T03:33:13;16.0;;;14.0;;
22675;SDS011;12521;43.310;21.876;2023-04-01T03:37:51;16.0;;;14.0;;
22675;SDS011;12521;43.310;21.876;2023-04-01T03:42:30;13.0;;;12.0;;
22675;SDS011;12521;43.310;21.876;2023-04-01T03:47:06;13.0;;;12.0;;
22675;SDS011;12521;43.310;21.876;2023-04-01T03:51:43;12.0;;;10.0;;
22675;SDS011;12521;43.310;21.876;2023-04-01T03:56:20;12.0;;;10.0;;
22675;SDS011;12521;43.310;21.876;2023-04-01T04:00:56;12.0;;;9.0;;
22675;SDS011;12521;43.310;21.876;2023-04-01T04:05:33;12.0;;;9.0;;
22675;SDS011;12521;43.310;21.876;2023-04-01T04:10:10;12.0;;;9.0;;
22675;SDS011;12521;43.310;21.876;2023-04-01T04:14:46;13.0;;;10.0;;
22675;SDS011;12521;43.310;21.876;2023-04-01T04:19:22;13.0;;;10.0;;
22675;SDS011;12521;43.310;21.876;2023-04-01T04:24:00;14.0;;;10.0;;
22675;SDS011;12521;43.310;21.876;2023-04-01T04:28:39;14.0;;;10.0;;
22675;SDS011;12521;43.310;21.876;2023-04-01T04:33:16;14.0;;;10.0;;
22675;SDS011;12521;43.310;21.876;2023-04-01T04:37:53;14.0;;;10.0;;
22675;SDS011;12521;43.310;21.876;2023-04-01T04:42:29;13.0;;;11.0;;
22675;SDS011;12521;43.310;21.876;2023-04-01T04:47:06;13.0;;;11.0;;
22675;SDS011;12521;43.310;21.876;2023-04-01T04:51:42;14.0;;;10.0;;
22675;SDS011;12521;43.310;21.876;2023-04-01T04:56:20;14.0;;;10.0;;
22675;SDS011;12521;43.310;21.876;2023-04-01T05:00:58;15.0;;;10.0;;
22675;SDS011;12521;43.310;21.876;2023-04-01T05:05:34;15.0;;;10.0;;
22675;SDS011;12521;43.310;21.876;2023-04-01T05:10:10;15.0;;;10.0;;
22675;SDS011;12521;43.310;21.876;2023-04-01T05:14:46;13.0;;;10.0;;
22675;SDS011;12521;43.310;21.876;2023-04-01T05:19:22;13.0;;;10.0;;
22675;SDS011;12521;43.310;21.876;2023-04-01T05:23:59;11.0;;;10.0;;
22675;SDS011;12521;43.310;21.876;2023-04-01T05:28:36;11.0;;;10.0;;
22675;SDS011;12521;43.310;21.876;2023-04-01T05:33:14;16.0;;;13.0;;
22675;SDS011;12521;43.310;21.876;2023-04-01T05:37:51;16.0;;;13.0;;
22675;SDS011;12521;43.310;21.876;2023-04-01T05:42:29;20.0;;;16.0;;
22675;SDS011;12521;43.310;21.876;2023-04-01T05:47:06;20.0;;;16.0;;
22675;SDS011;12521;43.310;21.876;2023-04-01T05:51:43;35.0;;;26.0;;
22675;SDS011;12521;43.310;21.876;2023-04-01T05:56:20;35.0;;;26.0;;
22675;SDS011;12521;43.310;21.876;2023-04-01T06:01:01;50.0;;;36.0;;
22675;SDS011;12521;43.310;21.876;2023-04-01T06:05:45;50.0;;;36.0;;
22675;SDS011;12521;43.310;21.876;2023-04-01T06:10:28;50.0;;;36.0;;
22675;SDS011;12521;43.310;21.876;2023-04-01T06:15:43;54.0;;;38.0;;
22675;SDS011;12521;43.310;21.876;2023-04-01T06:20:57;59.0;;;40.0;;
22675;SDS011;12521;43.310;21.876;2023-04-01T06:26:02;59.0;;;40.0;;
22675;SDS011;12521;43.310;21.876;2023-04-01T06:31:05;48.0;;;36.0;;
22675;SDS011;12521;43.310;21.876;2023-04-01T06:36:15;48.0;;;36.0;;
22675;SDS011;12521;43.310;21.876;2023-04-01T06:41:46;38.0;;;32.0;;
22675;SDS011;12521;43.310;21.876;2023-04-01T06:46:54;38.0;;;32.0;;
22675;SDS011;12521;43.310;21.876;2023-04-01T06:52:02;41.0;;;32.0;;
22675;SDS011;12521;43.310;21.876;2023-04-01T06:57:10;41.0;;;32.0;;
22675;SDS011;12521;43.310;21.876;2023-04-01T07:02:23;44.0;;;32.0;;
22675;SDS011;12521;43.310;21.876;2023-04-01T07:07:26;44.0;;;32.0;;
22675;SDS011;12521;43.310;21.876;2023-04-01T07:12:29;40.0;;;30.0;;
22675;SDS011;12521;43.310;21.876;2023-04-01T07:17:30;40.0;;;30.0;;
22675;SDS011;12521;43.310;21.876;2023-04-01T07:22:27;37.0;;;29.0;;
22675;SDS011;12521;43.310;21.876;2023-04-01T07:27:14;37.0;;;29.0;;
22675;SDS011;12521;43.310;21.876;2023-04-01T07:32:09;37.0;;;32.0;;
22675;SDS011;12521;43.310;21.876;2023-04-01T07:37:22;37.0;;;32.0;;
22675;SDS011;12521;43.310;21.876;2023-04-01T07:42:23;37.0;;;34.0;;
22675;SDS011;12521;43.310;21.876;2023-04-01T07:47:37;37.0;;;34.0;;
22675;SDS011;12521;43.310;21.876;2023-04-01T07:52:44;48.0;;;40.0;;
22675;SDS011;12521;43.310;21.876;2023-04-01T07:57:48;48.0;;;40.0;;
22675;SDS011;12521;43.310;21.876;2023-04-01T08:02:56;58.0;;;47.0;;
22675;SDS011;12521;43.310;21.876;2023-04-01T08:08:18;58.0;;;47.0;;
22675;SDS011;12521;43.310;21.876;2023-04-01T08:13:45;55.0;;;46.0;;
22675;SDS011;12521;43.310;21.876;2023-04-01T08:19:09;55.0;;;46.0;;
22675;SDS011;12521;43.310;21.876;2023-04-01T08:24:42;52.0;;;44.0;;
22675;SDS011;12521;43.310;21.876;2023-04-01T08:29:39;52.0;;;44.0;;
22675;SDS011;12521;43.310;21.876;2023-04-01T08:34:42;75.0;;;60.0;;
22675;SDS011;12521;43.310;21.876;2023-04-01T08:39:54;75.0;;;60.0;;
22675;SDS011;12521;43.310;21.876;2023-04-01T08:45:28;98.0;;;75.0;;
22675;SDS011;12521;43.310;21.876;2023-04-01T08:51:29;78.0;;;63.0;;
22675;SDS011;12521;43.310;21.876;2023-04-01T08:57:01;78.0;;;63.0;;
22675;SDS011;12521;43.310;21.876;2023-04-01T09:02:13;58.0;;;51.0;;
22675;SDS011;12521;43.310;21.876;2023-04-01T09:07:40;58.0;;;51.0;;
22675;SDS011;12521;43.310;21.876;2023-04-01T09:12:52;52.0;;;45.0;;
22675;SDS011;12521;43.310;21.876;2023-04-01T09:18:13;52.0;;;45.0;;
22675;SDS011;12521;43.310;21.876;2023-04-01T09:23:29;47.0;;;39.0;;
22675;SDS011;12521;43.310;21.876;2023-04-01T09:28:40;47.0;;;39.0;;
22675;SDS011;12521;43.310;21.876;2023-04-01T09:34:14;55.0;;;48.0;;
22675;SDS011;12521;43.310;21.876;2023-04-01T09:39:36;55.0;;;48.0;;
22675;SDS011;12521;43.310;21.876;2023-04-01T09:44:54;63.0;;;57.0;;
22675;SDS011;12521;43.310;21.876;2023-04-01T09:50:04;63.0;;;57.0;;
22675;SDS011;12521;43.310;21.876;2023-04-01T09:58:22;72.0;;;64.0;;
22675;SDS011;12521;43.310;21.876;2023-04-01T10:06:28;80.0;;;71.0;;
22675;SDS011;12521;43.310;21.876;2023-04-01T10:21:58;83.0;;;76.0;;
22675;SDS011;12521;43.310;21.876;2023-04-01T10:27:39;86.0;;;80.0;;
22675;SDS011;12521;43.310;21.876;2023-04-01T10:33:47;56.0;;;52.0;;
22675;SDS011;12521;43.310;21.876;2023-04-01T10:42:01;26.0;;;24.0;;
22675;SDS011;12521;43.310;21.876;2023-04-01T10:48:49;26.0;;;24.0;;
22675;SDS011;12521;43.310;21.876;2023-04-01T10:56:36;26.0;;;22.0;;
22675;SDS011;12521;43.310;21.876;2023-04-01T11:01:52;25.0;;;21.0;;
22675;SDS011;12521;43.310;21.876;2023-04-01T11:09:20;25.0;;;21.0;;
22675;SDS011;12521;43.310;21.876;2023-04-01T11:17:27;34.0;;;28.0;;
22675;SDS011;12521;43.310;21.876;2023-04-01T11:25:42;44.0;;;36.0;;
22675;SDS011;12521;43.310;21.876;2023-04-01T11:31:29;33.0;;;28.0;;
22675;SDS011;12521;43.310;21.876;2023-04-01T11:36:37;33.0;;;28.0;;
22675;SDS011;12521;43.310;21.876;2023-04-01T11:41:43;22.0;;;19.0;;
22675;SDS011;12521;43.310;21.876;2023-04-01T11:46:43;22.0;;;19.0;;
22675;SDS011;12521;43.310;21.876;2023-04-01T11:52:03;17.0;;;14.0;;
22675;SDS011;12521;43.310;21.876;2023-04-01T11:57:18;17.0;;;14.0;;
22675;SDS011;12521;43.310;21.876;2023-04-01T12:02:34;12.0;;;10.0;;
22675;SDS011;12521;43.310;21.876;2023-04-01T12:07:55;12.0;;;10.0;;
22675;SDS011;12521;43.310;21.876;2023-04-01T12:13:32;17.0;;;14.0;;
22675;SDS011;12521;43.310;21.876;2023-04-01T12:18:42;17.0;;;14.0;;
22675;SDS011;12521;43.310;21.876;2023-04-01T12:24:22;22.0;;;18.0;;
22675;SDS011;12521;43.310;21.876;2023-04-01T12:31:53;19.0;;;16.0;;
22675;SDS011;12521;43.310;21.876;2023-04-01T12:37:09;19.0;;;16.0;;
22675;SDS011;12521;43.310;21.876;2023-04-01T12:42:14;16.0;;;13.0;;
22675;SDS011;12521;43.310;21.876;2023-04-01T12:47:53;16.0;;;13.0;;
22675;SDS011;12521;43.310;21.876;2023-04-01T12:54:17;18.0;;;15.0;;
22675;SDS011;12521;43.310;21.876;2023-04-01T13:02:13;19.0;;;17.0;;
22675;SDS011;12521;43.310;21.876;2023-04-01T13:07:59;19.0;;;17.0;;
22675;SDS011;12521;43.310;21.876;2023-04-01T13:13:38;21.0;;;16.0;;
22675;SDS011;12521;43.310;21.876;2023-04-01T13:19:21;21.0;;;16.0;;
22675;SDS011;12521;43.310;21.876;2023-04-01T13:24:31;23.0;;;15.0;;
22675;SDS011;12521;43.310;21.876;2023-04-01T13:29:32;23.0;;;15.0;;
22675;SDS011;12521;43.310;21.876;2023-04-01T13:34:34;16.0;;;11.0;;
22675;SDS011;12521;43.310;21.876;2023-04-01T13:40:02;16.0;;;11.0;;
22675;SDS011;12521;43.310;21.876;2023-04-01T13:45:54;8.0;;;7.0;;
22675;SDS011;12521;43.310;21.876;2023-04-01T13:51:30;10.0;;;8.0;;
22675;SDS011;12521;43.310;21.876;2023-04-01T13:56:57;10.0;;;8.0;;
22675;SDS011;12521;43.310;21.876;2023-04-01T14:02:47;11.0;;;8.0;;
22675;SDS011;12521;43.310;21.876;2023-04-01T14:08:33;11.0;;;8.0;;
22675;SDS011;12521;43.310;21.876;2023-04-01T14:14:21;9.0;;;7.0;;
22675;SDS011;12521;43.310;21.876;2023-04-01T14:20:13;9.0;;;7.0;;
22675;SDS011;12521;43.310;21.876;2023-04-01T14:25:36;7.0;;;6.0;;
22675;SDS011;12521;43.310;21.876;2023-04-01T14:33:06;6.0;;;6.0;;
22675;SDS011;12521;43.310;21.876;2023-04-01T14:38:33;6.0;;;6.0;;
22675;SDS011;12521;43.310;21.876;2023-04-01T14:43:55;6.0;;;5.0;;
22675;SDS011;12521;43.310;21.876;2023-04-01T14:49:30;6.0;;;5.0;;
22675;SDS011;12521;43.310;21.876;2023-04-01T14:54:22;8.0;;;6.0;;
22675;SDS011;12521;43.310;21.876;2023-04-01T14:59:28;8.0;;;6.0;;
22675;SDS011;12521;43.310;21.876;2023-04-01T15:04:33;9.0;;;8.0;;
22675;SDS011;12521;43.310;21.876;2023-04-01T15:09:58;9.0;;;8.0;;
22675;SDS011;12521;43.310;21.876;2023-04-01T15:16:00;10.0;;;8.0;;
22675;SDS011;12521;43.310;21.876;2023-04-01T15:21:18;12.0;;;9.0;;
22675;SDS011;12521;43.310;21.876;2023-04-01T15:27:13;12.0;;;9.0;;
22675;SDS011;12521;43.310;21.876;2023-04-01T15:32:43;12.0;;;10.0;;
22675;SDS011;12521;43.310;21.876;2023-04-01T15:38:29;12.0;;;10.0;;
22675;SDS011;12521;43.310;21.876;2023-04-01T15:43:40;12.0;;;10.0;;
22675;SDS011;12521;43.310;21.876;2023-04-01T15:48:45;12.0;;;10.0;;
22675;SDS011;12521;43.310;21.876;2023-04-01T15:54:04;10.0;;;9.0;;
22675;SDS011;12521;43.310;21.876;2023-04-01T15:59:47;10.0;;;9.0;;
22675;SDS011;12521;43.310;21.876;2023-04-01T16:04:54;9.0;;;8.0;;
22675;SDS011;12521;43.310;21.876;2023-04-01T16:10:04;9.0;;;8.0;;
22675;SDS011;12521;43.310;21.876;2023-04-01T16:15:24;10.0;;;8.0;;
22675;SDS011;12521;43.310;21.876;2023-04-01T16:20:24;10.0;;;8.0;;
22675;SDS011;12521;43.310;21.876;2023-04-01T16:25:39;11.0;;;9.0;;
22675;SDS011;12521;43.310;21.876;2023-04-01T16:30:47;11.0;;;9.0;;
22675;SDS011;12521;43.310;21.876;2023-04-01T16:35:58;12.0;;;12.0;;
22675;SDS011;12521;43.310;21.876;2023-04-01T16:41:16;12.0;;;12.0;;
22675;SDS011;12521;43.310;21.876;2023-04-01T16:46:27;14.0;;;14.0;;
22675;SDS011;12521;43.310;21.876;2023-04-01T16:51:17;14.0;;;14.0;;
22675;SDS011;12521;43.310;21.876;2023-04-01T16:56:08;12.0;;;12.0;;
22675;SDS011;12521;43.310;21.876;2023-04-01T17:01:05;12.0;;;12.0;;
22675;SDS011;12521;43.310;21.876;2023-04-01T17:06:12;9.0;;;9.0;;
22675;SDS011;12521;43.310;21.876;2023-04-01T17:11:19;9.0;;;9.0;;
22675;SDS011;12521;43.310;21.876;2023-04-01T17:16:35;10.0;;;10.0;;
22675;SDS011;12521;43.310;21.876;2023-04-01T17:21:57;11.0;;;11.0;;
22675;SDS011;12521;43.310;21.876;2023-04-01T17:26:55;11.0;;;11.0;;
22675;SDS011;12521;43.310;21.876;2023-04-01T17:32:03;22.0;;;18.0;;
22675;SDS011;12521;43.310;21.876;2023-04-01T17:37:17;22.0;;;18.0;;
22675;SDS011;12521;43.310;21.876;2023-04-01T17:42:47;34.0;;;24.0;;
22675;SDS011;12521;43.310;21.876;2023-04-01T17:48:08;34.0;;;24.0;;
22675;SDS011;12521;43.310;21.876;2023-04-01T17:53:36;33.0;;;26.0;;
22675;SDS011;12521;43.310;21.876;2023-04-01T17:59:16;33.0;;;26.0;;
22675;SDS011;12521;43.310;21.876;2023-04-01T18:04:51;32.0;;;27.0;;
22675;SDS011;12521;43.310;21.876;2023-04-01T18:10:50;32.0;;;27.0;;
22675;SDS011;12521;43.310;21.876;2023-04-01T18:16:28;36.0;;;31.0;;
22675;SDS011;12521;43.310;21.876;2023-04-01T18:22:10;41.0;;;35.0;;
22675;SDS011;12521;43.310;21.876;2023-04-01T18:27:18;41.0;;;35.0;;
22675;SDS011;12521;43.310;21.876;2023-04-01T18:32:21;48.0;;;40.0;;
22675;SDS011;12521;43.310;21.876;2023-04-01T18:37:19;48.0;;;40.0;;
22675;SDS011;12521;43.310;21.876;2023-04-01T18:42:22;54.0;;;45.0;;
22675;SDS011;12521;43.310;21.876;2023-04-01T18:47:27;54.0;;;45.0;;
22675;SDS011;12521;43.310;21.876;2023-04-01T18:52:23;41.0;;;34.0;;
22675;SDS011;12521;43.310;21.876;2023-04-01T18:57:15;41.0;;;34.0;;
22675;SDS011;12521;43.310;21.876;2023-04-01T19:02:02;28.0;;;24.0;;
22675;SDS011;12521;43.310;21.876;2023-04-01T19:07:43;28.0;;;24.0;;
22675;SDS011;12521;43.310;21.876;2023-04-01T19:12:40;38.0;;;33.0;;
22675;SDS011;12521;43.310;21.876;2023-04-01T19:18:18;38.0;;;33.0;;
22675;SDS011;12521;43.310;21.876;2023-04-01T19:24:16;48.0;;;42.0;;
22675;SDS011;12521;43.310;21.876;2023-04-01T19:30:19;48.0;;;42.0;;
22675;SDS011;12521;43.310;21.876;2023-04-01T19:35:42;40.0;;;32.0;;
22675;SDS011;12521;43.310;21.876;2023-04-01T19:40:53;40.0;;;32.0;;
22675;SDS011;12521;43.310;21.876;2023-04-01T19:46:08;31.0;;;23.0;;
22675;SDS011;12521;43.310;21.876;2023-04-01T19:51:12;31.0;;;23.0;;
22675;SDS011;12521;43.310;21.876;2023-04-01T19:56:15;25.0;;;20.0;;
22675;SDS011;12521;43.310;21.876;2023-04-01T20:00:59;25.0;;;20.0;;
22675;SDS011;12521;43.310;21.876;2023-04-01T20:05:51;19.0;;;17.0;;
22675;SDS011;12521;43.310;21.876;2023-04-01T20:10:57;19.0;;;17.0;;
22675;SDS011;12521;43.310;21.876;2023-04-01T20:16:06;23.0;;;19.0;;
22675;SDS011;12521;43.310;21.876;2023-04-01T20:20:57;23.0;;;19.0;;
22675;SDS011;12521;43.310;21.876;2023-04-01T20:25:58;27.0;;;21.0;;
22675;SDS011;12521;43.310;21.876;2023-04-01T20:31:04;27.0;;;21.0;;
22675;SDS011;12521;43.310;21.876;2023-04-01T20:36:16;26.0;;;20.0;;
22675;SDS011;12521;43.310;21.876;2023-04-01T20:41:35;26.0;;;20.0;;
22675;SDS011;12521;43.310;21.876;2023-04-01T20:47:24;26.0;;;20.0;;
22675;SDS011;12521;43.310;21.876;2023-04-01T20:53:07;20.0;;;17.0;;
22675;SDS011;12521;43.310;21.876;2023-04-01T20:58:28;20.0;;;17.0;;
22675;SDS011;12521;43.310;21.876;2023-04-01T21:04:15;15.0;;;14.0;;
22675;SDS011;12521;43.310;21.876;2023-04-01T21:09:40;15.0;;;14.0;;
22675;SDS011;12521;43.310;21.876;2023-04-01T21:15:02;22.0;;;19.0;;
22675;SDS011;12521;43.310;21.876;2023-04-01T21:20:49;22.0;;;19.0;;
22675;SDS011;12521;43.310;21.876;2023-04-01T21:26:47;28.0;;;24.0;;
22675;SDS011;12521;43.310;21.876;2023-04-01T21:32:10;40.0;;;34.0;;
22675;SDS011;12521;43.310;21.876;2023-04-01T21:37:50;40.0;;;34.0;;
22675;SDS011;12521;43.310;21.876;2023-04-01T21:43:34;52.0;;;43.0;;
22675;SDS011;12521;43.310;21.876;2023-04-01T21:49:56;52.0;;;43.0;;
22675;SDS011;12521;43.310;21.876;2023-04-01T21:59:31;54.0;;;44.0;;
22675;SDS011;12521;43.310;21.876;2023-04-01T22:05:04;55.0;;;46.0;;
22675;SDS011;12521;43.310;21.876;2023-04-01T22:10:19;55.0;;;46.0;;
22675;SDS011;12521;43.310;21.876;2023-04-01T22:15:45;61.0;;;50.0;;
22675;SDS011;12521;43.310;21.876;2023-04-01T22:21:03;61.0;;;50.0;;
22675;SDS011;12521;43.310;21.876;2023-04-01T22:26:09;67.0;;;54.0;;
22675;SDS011;12521;43.310;21.876;2023-04-01T22:31:11;67.0;;;54.0;;
22675;SDS011;12521;43.310;21.876;2023-04-01T22:36:18;66.0;;;56.0;;
22675;SDS011;12521;43.310;21.876;2023-04-01T22:41:18;66.0;;;56.0;;
22675;SDS011;12521;43.310;21.876;2023-04-01T22:46:28;65.0;;;57.0;;
22675;SDS011;12521;43.310;21.876;2023-04-01T22:51:40;65.0;;;57.0;;
22675;SDS011;12521;43.310;21.876;2023-04-01T22:56:33;62.0;;;52.0;;
22675;SDS011;12521;43.310;21.876;2023-04-01T23:01:28;62.0;;;52.0;;
22675;SDS011;12521;43.310;21.876;2023-04-01T23:06:24;59.0;;;47.0;;
22675;SDS011;12521;43.310;21.876;2023-04-01T23:11:19;59.0;;;47.0;;
22675;SDS011;12521;43.310;21.876;2023-04-01T23:16:11;62.0;;;50.0;;
22675;SDS011;12521;43.310;21.876;2023-04-01T23:21:06;62.0;;;50.0;;
22675;SDS011;12521;43.310;21.876;2023-04-01T23:26:16;65.0;;;53.0;;
22675;SDS011;12521;43.310;21.876;2023-04-01T23:31:36;65.0;;;53.0;;
22675;SDS011;12521;43.310;21.876;2023-04-01T23:36:18;64.0;;;52.0;;
22675;SDS011;12521;43.310;21.876;2023-04-01T23:40:55;64.0;;;52.0;;
22675;SDS011;12521;43.310;21.876;2023-04-01T23:45:33;62.0;;;52.0;;
22675;SDS011;12521;43.310;21.876;2023-04-01T23:50:13;62.0;;;52.0;;
22675;SDS011;12521;43.310;21.876;2023-04-01T23:55:13;55.0;;;46.0;;
